LEZG Airport Information

Runway Information
Runway 12R Length 12198 ft width 148 ft Elevation 834 ft Threshold N/A Heading 120
Runway 30L Length 12198 ft Width 148 ft Elevation 863 ft Threshold N/A Heading 300
Runway 12L Length 9843 ft width 148 ft Elevation 823 ft Threshold N/A Heading 120
Runway 30R Length 9843 ft Width 148 ft Elevation 834 ft Threshold N/A Heading 300
Airport Frequencies
Type APP Name APP Frequency 119.3 MHZ
Type GND Name GND Frequency 118.1 MHZ
Type TWR Name TWR Frequency 118.1 MHZ
Airport Navaids
Type VOR-DME Name Zaragoza Frequency 113000 KHZ
Type NDB Name Zaragoza Frequency 389 KHZ
Type TACAN Name Zaragoza Frequency 133700 KHZ
Type NDB Name Zaragoza Frequency 348 KHZ
Airport Weather Information & NOTAM
ADDS - METARS form results

(2251 UTC 29 January 2023)
Data provider http://aviationweather.gov/metar/data/
 
METAR text: LEZG 292230Z 26010KT CAVOK 02/M02 Q1029
Conditions at: LEZG (ZARAGOZA (MIL/CI, ES) observed 2230 UTC 29 January 2023
Temperature: 2.0°C (36°F)
Dewpoint: -2.0°C (28°F) [RH = 75%]
Pressure (altimeter): 30.38 inches Hg (1029.0 mb)
Winds: from the W (260 degrees) at 12 MPH (10 knots; 5.1 m/s)
Visibility: 6 or more miles (10+ km)
Ceiling: ceiling and visibility are OK
Clouds: unknown
Weather: no significant weather observed at this time

METAR text: LEZG 292200Z 26010KT CAVOK 02/M02 Q1029
Conditions at: LEZG (ZARAGOZA (MIL/CI, ES) observed 2200 UTC 29 January 2023
Temperature: 2.0°C (36°F)
Dewpoint: -2.0°C (28°F) [RH = 75%]
Pressure (altimeter): 30.38 inches Hg (1029.0 mb)
Winds: from the W (260 degrees) at 12 MPH (10 knots; 5.1 m/s)
Visibility: 6 or more miles (10+ km)
Ceiling: ceiling and visibility are OK
Clouds: unknown
Weather: no significant weather observed at this time

Forecast for: LEZG (ZARAGOZA (MIL/CI, ES)
Text: TAF LEZG 291700Z 2918/3018 28009KT CAVOK TX09/3013Z TN01/3006Z
Forecast period: 1800 UTC 29 January 2023 to 1800 UTC 30 January 2023
Forecast type: FROM: standard forecast or significant change
Winds: from the W (280 degrees) at 10 MPH (9 knots; 4.6 m/s)
Visibility: 6 or more miles (10+ km)
Ceiling: unknown
Clouds: missing
Weather: no significant weather forecast for this period
Text: PROB40
Forecast period: 0500 to 0800 UTC 30 January 2023
Forecast type: TEMPORARY: The following changes expected for less than half the time period
Visibility: missing
Ceiling: 1400 feet AGL
Clouds: broken clouds at 1400 feet AGL
Weather: no significant weather forecast for this period